createdAt,value
2018-01-26T00:00:45.601Z,88.1
2018-01-26T00:01:46.271Z,87.9
2018-01-26T00:02:46.942Z,88.0
2018-01-26T00:03:47.607Z,87.9
2018-01-26T00:04:48.274Z,87.6
2018-01-26T00:05:48.942Z,87.9
2018-01-26T00:06:49.608Z,88.2
2018-01-26T00:07:50.311Z,87.1
2018-01-26T00:08:50.981Z,87.5
2018-01-26T00:09:51.647Z,87.6
2018-01-26T00:10:52.315Z,87.6
2018-01-26T00:11:52.983Z,87.5
2018-01-26T00:12:53.649Z,87.4
2018-01-26T00:13:54.315Z,87.3
2018-01-26T00:14:54.981Z,87.3
2018-01-26T00:15:55.689Z,87.4
2018-01-26T00:16:56.358Z,87.7
2018-01-26T00:17:57.021Z,87.8
2018-01-26T00:18:57.687Z,87.1
2018-01-26T00:19:58.354Z,87.6
2018-01-26T00:20:59.022Z,87.7
2018-01-26T00:21:59.688Z,87.7
2018-01-26T00:23:00.354Z,87.6
2018-01-26T00:24:01.023Z,87.4
2018-01-26T00:25:01.688Z,87.6
2018-01-26T00:26:02.355Z,87.8
2018-01-26T00:27:03.020Z,87.6
2018-01-26T00:28:03.686Z,87.8
2018-01-26T00:29:04.400Z,87.4
2018-01-26T00:30:05.073Z,87.7
2018-01-26T00:31:05.732Z,87.4
2018-01-26T00:32:06.398Z,87.5
2018-01-26T00:33:07.065Z,87.2
2018-01-26T00:34:07.796Z,87.5
2018-01-26T00:35:08.449Z,87.6
2018-01-26T00:36:09.117Z,87.0
2018-01-26T00:37:09.785Z,87.0
2018-01-26T00:38:10.459Z,87.1
2018-01-26T00:39:11.117Z,87.6
2018-01-26T00:40:11.786Z,87.3
2018-01-26T00:41:12.488Z,87.5
2018-01-26T00:42:13.156Z,87.6
2018-01-26T00:43:13.822Z,87.6
2018-01-26T00:44:14.489Z,87.1
2018-01-26T00:45:15.155Z,87.0
2018-01-26T00:46:15.824Z,87.3
2018-01-26T00:47:16.489Z,87.6
2018-01-26T00:48:17.186Z,87.2
2018-01-26T00:49:17.863Z,87.0
2018-01-26T00:50:18.529Z,86.8
2018-01-26T00:51:19.196Z,87.0
2018-01-26T00:52:19.862Z,86.9
2018-01-26T00:53:20.530Z,86.7
2018-01-26T00:54:21.252Z,87.3
2018-01-26T00:55:21.914Z,87.5
2018-01-26T00:56:22.580Z,87.8
2018-01-26T00:57:23.247Z,87.5
2018-01-26T00:58:23.914Z,87.4
2018-01-26T00:59:24.581Z,87.5
2018-01-26T01:00:25.246Z,87.6
2018-01-26T01:01:25.912Z,87.8
2018-01-26T01:02:26.579Z,87.5
2018-01-26T01:03:27.246Z,87.3
2018-01-26T01:04:27.912Z,87.2
2018-01-26T01:05:28.578Z,87.3
2018-01-26T01:06:29.244Z,87.0
2018-01-26T01:07:29.911Z,87.8
2018-01-26T01:08:30.576Z,87.3
2018-01-26T01:09:31.242Z,88.0
2018-01-26T01:10:31.908Z,87.5
2018-01-26T01:11:32.614Z,87.6
2018-01-26T01:12:33.319Z,87.7
2018-01-26T01:13:33.987Z,87.7
2018-01-26T01:14:34.656Z,87.7
2018-01-26T01:15:35.322Z,87.3
2018-01-26T01:16:35.996Z,87.6
2018-01-26T01:17:36.657Z,87.8
2018-01-26T01:18:37.324Z,87.9
2018-01-26T01:19:37.989Z,87.8
2018-01-26T01:20:38.696Z,87.9
2018-01-26T01:21:39.360Z,87.8
2018-01-26T01:22:40.027Z,87.9
2018-01-26T01:23:40.737Z,87.8
2018-01-26T01:24:41.404Z,88.0
2018-01-26T01:25:42.072Z,87.9
2018-01-26T01:26:42.737Z,87.8
2018-01-26T01:27:43.402Z,87.6
2018-01-26T01:28:44.072Z,87.8
2018-01-26T01:29:44.802Z,87.8
2018-01-26T01:30:45.399Z,88.1
2018-01-26T01:31:46.065Z,88.5
2018-01-26T01:32:46.733Z,88.4
2018-01-26T01:33:47.440Z,88.1
2018-01-26T01:34:48.107Z,88.9
2018-01-26T01:35:48.774Z,88.3
2018-01-26T01:36:49.439Z,88.2
2018-01-26T01:37:50.107Z,88.3
2018-01-26T01:38:50.774Z,88.6
2018-01-26T01:39:51.490Z,88.7
2018-01-26T01:40:52.186Z,88.4
2018-01-26T01:41:52.866Z,88.4
2018-01-26T01:42:53.533Z,88.7
2018-01-26T01:43:54.200Z,89.4
2018-01-26T01:44:54.867Z,90.1
2018-01-26T01:45:55.534Z,89.7
2018-01-26T01:46:56.199Z,90.3
2018-01-26T01:47:56.867Z,89.6
2018-01-26T01:48:57.532Z,90.2
2018-01-26T01:49:58.198Z,90.4
2018-01-26T01:50:58.866Z,91.1
2018-01-26T01:51:59.533Z,90.3
2018-01-26T01:53:00.199Z,89.7
2018-01-26T01:54:00.865Z,89.6
2018-01-26T01:55:01.533Z,89.1
2018-01-26T01:56:02.198Z,89.5
2018-01-26T01:57:02.867Z,90.0
2018-01-26T01:58:03.532Z,89.8
2018-01-26T01:59:04.199Z,89.7
2018-01-26T02:00:05.668Z,89.5
2018-01-26T02:01:06.335Z,89.7
2018-01-26T02:02:07.005Z,89.5
2018-01-26T02:03:07.671Z,89.6
2018-01-26T02:04:08.336Z,89.8
2018-01-26T02:05:09.003Z,90.0
2018-01-26T02:06:09.668Z,89.9
2018-01-26T02:07:10.374Z,89.5
2018-01-26T02:08:11.041Z,89.6
2018-01-26T02:09:11.707Z,89.6
2018-01-26T02:10:12.372Z,89.7
2018-01-26T02:11:13.040Z,89.8
2018-01-26T02:12:13.709Z,90.1
2018-01-26T02:13:14.375Z,90.6
2018-01-26T02:14:15.041Z,90.8
2018-01-26T02:15:15.708Z,90.7
2018-01-26T02:16:16.375Z,90.8
2018-01-26T02:17:17.040Z,91.4
2018-01-26T02:18:17.705Z,91.1
2018-01-26T02:19:18.372Z,91.1
2018-01-26T02:20:19.037Z,91.3
2018-01-26T02:21:19.705Z,91.1
2018-01-26T02:22:20.373Z,91.2
2018-01-26T02:23:21.037Z,91.4
2018-01-26T02:24:30.999Z,91.5
2018-01-26T02:25:31.663Z,91.7
2018-01-26T02:26:32.329Z,92.5
2018-01-26T02:27:32.996Z,91.5
2018-01-26T02:28:33.659Z,91.8
2018-01-26T02:29:34.323Z,92.3
2018-01-26T02:30:34.988Z,92.0
2018-01-26T02:31:35.651Z,91.8
2018-01-26T02:32:36.316Z,92.0
2018-01-26T02:33:36.979Z,93.2
2018-01-26T02:34:37.643Z,93.7
2018-01-26T02:35:38.357Z,93.6
2018-01-26T02:36:39.027Z,93.5
2018-01-26T02:37:39.685Z,93.7
2018-01-26T02:38:40.350Z,93.8
2018-01-26T02:39:41.053Z,93.7
2018-01-26T02:40:41.715Z,93.8
2018-01-26T02:41:42.379Z,94.8
2018-01-26T02:42:43.041Z,95.2
2018-01-26T02:43:43.708Z,95.1
2018-01-26T02:44:44.373Z,95.2
2018-01-26T02:45:45.039Z,94.9
2018-01-26T02:46:45.702Z,95.6
2018-01-26T02:47:46.365Z,95.5
2018-01-26T02:48:47.030Z,96.2
2018-01-26T02:49:47.695Z,97.3
2018-01-26T02:50:48.407Z,97.2
2018-01-26T02:51:49.074Z,97.0
2018-01-26T02:52:49.739Z,97.8
2018-01-26T02:53:50.404Z,97.7
2018-01-26T02:54:51.069Z,97.9
2018-01-26T02:55:51.732Z,97.4
2018-01-26T02:56:52.397Z,96.9
2018-01-26T02:57:53.061Z,97.0
2018-01-26T02:58:53.726Z,96.5
2018-01-26T02:59:54.390Z,96.1
2018-01-26T03:00:55.054Z,97.0
2018-01-26T03:01:55.720Z,97.6
2018-01-26T03:02:56.381Z,96.7
2018-01-26T03:03:57.081Z,96.3
2018-01-26T03:04:57.748Z,96.0
2018-01-26T03:05:58.411Z,96.2
2018-01-26T03:06:59.075Z,96.2
2018-01-26T03:07:59.738Z,96.4
2018-01-26T03:09:00.402Z,97.0
2018-01-26T03:10:01.068Z,96.5
2018-01-26T03:11:01.735Z,97.3
2018-01-26T03:12:02.399Z,97.7
2018-01-26T03:13:03.063Z,98.3
2018-01-26T03:14:03.728Z,97.8
2018-01-26T03:15:04.390Z,98.3
2018-01-26T03:16:05.055Z,98.4
2018-01-26T03:17:05.719Z,98.0
2018-01-26T03:18:06.422Z,97.6
2018-01-26T03:19:07.088Z,98.3
2018-01-26T03:20:07.752Z,98.3
2018-01-26T03:21:08.415Z,99.8
2018-01-26T03:22:09.081Z,100.0
2018-01-26T03:23:09.745Z,100.0
2018-01-26T03:24:10.409Z,100.0
2018-01-26T03:25:11.076Z,100.0
2018-01-26T03:26:11.793Z,100.0
2018-01-26T03:27:12.457Z,100.0
2018-01-26T03:28:13.121Z,100.0
2018-01-26T03:29:13.786Z,100.0
2018-01-26T03:30:14.451Z,100.0
2018-01-26T03:31:15.116Z,100.0
2018-01-26T03:32:15.782Z,100.0
2018-01-26T03:33:16.446Z,100.0
2018-01-26T03:34:17.112Z,100.0
2018-01-26T03:35:17.774Z,100.0
2018-01-26T03:36:18.441Z,100.0
2018-01-26T03:37:19.108Z,100.0
2018-01-26T03:38:19.773Z,100.0
2018-01-26T03:39:20.437Z,100.0
2018-01-26T03:40:21.103Z,100.0
2018-01-26T03:41:21.767Z,100.0
2018-01-26T03:42:22.432Z,100.0
2018-01-26T03:43:23.097Z,100.0
2018-01-26T03:44:23.761Z,100.0
2018-01-26T03:45:24.425Z,100.0
2018-01-26T03:46:25.089Z,100.0
2018-01-26T03:47:25.755Z,100.0
2018-01-26T03:48:26.422Z,100.0
2018-01-26T03:49:27.088Z,100.0
2018-01-26T03:50:27.753Z,100.0
2018-01-26T03:51:28.417Z,100.0
2018-01-26T03:52:29.082Z,100.0
2018-01-26T03:53:29.784Z,100.0
2018-01-26T03:54:30.453Z,100.0
2018-01-26T03:55:31.117Z,100.0
2018-01-26T03:56:31.781Z,100.0
2018-01-26T03:57:32.446Z,100.0
2018-01-26T03:58:33.109Z,100.0
2018-01-26T03:59:33.777Z,100.0
2018-01-26T04:00:34.440Z,100.0
2018-01-26T04:01:35.108Z,100.0
2018-01-26T04:02:35.812Z,100.0
2018-01-26T04:03:36.476Z,100.0
2018-01-26T04:04:37.141Z,100.0
2018-01-26T04:05:37.806Z,100.0
2018-01-26T04:06:38.471Z,100.0
2018-01-26T04:07:39.136Z,100.0
2018-01-26T04:08:39.801Z,100.0
2018-01-26T04:09:40.465Z,100.0
2018-01-26T04:10:41.128Z,100.0
2018-01-26T04:11:41.795Z,100.0
2018-01-26T04:12:42.455Z,100.0
2018-01-26T04:13:43.121Z,100.0
2018-01-26T04:14:43.787Z,100.0
2018-01-26T04:15:44.465Z,100.0
2018-01-26T04:16:45.155Z,100.0
2018-01-26T04:17:45.819Z,100.0
2018-01-26T04:18:46.506Z,100.0
2018-01-26T04:19:47.189Z,100.0
2018-01-26T04:20:47.891Z,100.0
2018-01-26T04:21:48.585Z,100.0
2018-01-26T04:22:49.260Z,100.0
2018-01-26T04:23:49.925Z,100.0
2018-01-26T04:24:50.588Z,100.0
2018-01-26T04:25:51.253Z,100.0
2018-01-26T04:26:51.965Z,100.0
2018-01-26T04:27:52.633Z,100.0
2018-01-26T04:28:53.298Z,100.0
2018-01-26T04:29:53.962Z,100.0
2018-01-26T04:30:54.627Z,100.0
2018-01-26T04:31:55.291Z,100.0
2018-01-26T04:32:55.956Z,100.0
2018-01-26T04:33:56.620Z,100.0
2018-01-26T04:34:57.286Z,100.0
2018-01-26T04:35:57.988Z,100.0
2018-01-26T04:36:58.653Z,100.0
2018-01-26T04:37:59.316Z,100.0
2018-01-26T04:38:59.979Z,100.0
2018-01-26T04:40:00.644Z,100.0
2018-01-26T04:41:01.310Z,100.0
2018-01-26T04:42:02.026Z,100.0
2018-01-26T04:43:02.688Z,100.0
2018-01-26T04:44:03.355Z,100.0
2018-01-26T04:45:04.021Z,100.0
2018-01-26T04:46:04.723Z,100.0
2018-01-26T04:47:05.388Z,100.0
2018-01-26T04:48:06.090Z,100.0
2018-01-26T04:49:06.754Z,100.0
2018-01-26T04:50:07.422Z,100.0
2018-01-26T04:51:08.122Z,100.0
2018-01-26T04:52:08.793Z,100.0
2018-01-26T04:53:09.489Z,100.0
2018-01-26T04:54:10.153Z,100.0
2018-01-26T04:55:10.819Z,100.0
2018-01-26T04:56:11.483Z,100.0
2018-01-26T04:57:12.150Z,100.0
2018-01-26T04:58:12.815Z,100.0
2018-01-26T04:59:13.478Z,100.0
2018-01-26T05:00:14.144Z,100.0
2018-01-26T05:01:14.809Z,100.0
2018-01-26T05:02:15.473Z,100.0
2018-01-26T05:03:16.137Z,100.0
2018-01-26T05:04:16.799Z,100.0
2018-01-26T05:05:17.464Z,100.0
2018-01-26T05:06:18.127Z,100.0
2018-01-26T05:07:18.842Z,100.0
2018-01-26T05:08:19.508Z,100.0
2018-01-26T05:09:20.171Z,100.0
2018-01-26T05:10:20.836Z,100.0
2018-01-26T05:11:21.502Z,100.0
2018-01-26T05:12:22.166Z,100.0
2018-01-26T05:13:22.832Z,100.0
2018-01-26T05:14:23.497Z,100.0
2018-01-26T05:15:24.161Z,100.0
2018-01-26T05:16:24.863Z,100.0
2018-01-26T05:17:25.566Z,100.0
2018-01-26T05:18:26.231Z,100.0
2018-01-26T05:19:26.895Z,100.0
2018-01-26T05:20:27.561Z,100.0
2018-01-26T05:21:28.227Z,100.0
2018-01-26T05:22:28.942Z,100.0
2018-01-26T05:23:29.608Z,100.0
2018-01-26T05:24:30.273Z,100.0
2018-01-26T05:25:30.937Z,100.0
2018-01-26T05:26:31.605Z,100.0
2018-01-26T05:27:32.267Z,100.0
2018-01-26T05:28:33.004Z,100.0
2018-01-26T05:29:33.672Z,100.0
2018-01-26T05:30:34.337Z,100.0
2018-01-26T05:31:35.003Z,100.0
2018-01-26T05:32:35.707Z,100.0
2018-01-26T05:33:36.373Z,100.0
2018-01-26T05:34:37.038Z,100.0
2018-01-26T05:35:37.701Z,100.0
2018-01-26T05:36:38.367Z,100.0
2018-01-26T05:37:39.031Z,100.0
2018-01-26T05:38:39.697Z,100.0
2018-01-26T05:39:40.361Z,100.0
2018-01-26T05:40:41.025Z,100.0
2018-01-26T05:41:41.688Z,100.0
2018-01-26T05:42:42.402Z,100.0
2018-01-26T05:43:43.067Z,100.0
2018-01-26T05:44:43.739Z,100.0
2018-01-26T05:45:44.436Z,100.0
2018-01-26T05:46:45.102Z,100.0
2018-01-26T05:47:45.765Z,100.0
2018-01-26T05:48:46.428Z,100.0
2018-01-26T05:49:47.094Z,100.0
2018-01-26T05:50:47.758Z,100.0
2018-01-26T05:51:48.423Z,100.0
2018-01-26T05:52:49.090Z,100.0
2018-01-26T05:53:49.755Z,100.0
2018-01-26T05:54:50.418Z,100.0
2018-01-26T05:55:51.084Z,100.0
2018-01-26T05:56:51.751Z,100.0
2018-01-26T05:57:52.417Z,100.0
2018-01-26T05:58:53.081Z,100.0
2018-01-26T05:59:53.750Z,100.0
2018-01-26T06:00:54.452Z,100.0
2018-01-26T06:01:55.118Z,100.0
2018-01-26T06:02:55.781Z,100.0
2018-01-26T06:03:56.446Z,100.0
2018-01-26T06:04:57.110Z,100.0
2018-01-26T06:05:57.774Z,100.0
2018-01-26T06:06:58.438Z,100.0
2018-01-26T06:07:59.142Z,100.0
2018-01-26T06:08:59.808Z,100.0
2018-01-26T06:10:00.475Z,100.0
2018-01-26T06:11:01.137Z,99.7
2018-01-26T06:12:01.815Z,99.8
2018-01-26T06:13:02.502Z,99.6
2018-01-26T06:14:03.165Z,99.8
2018-01-26T06:15:03.829Z,100.0
2018-01-26T06:16:04.499Z,100.0
2018-01-26T06:17:05.159Z,100.0
2018-01-26T06:18:06.074Z,100.0
2018-01-26T06:19:06.740Z,100.0
2018-01-26T06:20:07.402Z,100.0
2018-01-26T06:21:08.079Z,100.0
2018-01-26T06:22:08.771Z,100.0
2018-01-26T06:23:09.435Z,100.0
2018-01-26T06:24:10.189Z,100.0
2018-01-26T06:25:10.805Z,100.0
2018-01-26T06:26:11.465Z,99.7
2018-01-26T06:27:12.128Z,99.8
2018-01-26T06:28:12.794Z,100.0
2018-01-26T06:29:13.463Z,100.0
2018-01-26T06:30:14.126Z,100.0
2018-01-26T06:31:14.829Z,100.0
2018-01-26T06:32:15.540Z,100.0
2018-01-26T06:33:16.155Z,99.9
2018-01-26T06:34:16.818Z,99.7
2018-01-26T06:35:17.482Z,100.0
2018-01-26T06:36:18.146Z,99.6
2018-01-26T06:37:18.849Z,99.8
2018-01-26T06:38:19.515Z,100.0
2018-01-26T06:39:20.178Z,100.0
2018-01-26T06:40:20.842Z,99.7
2018-01-26T06:41:21.504Z,99.7
2018-01-26T06:42:22.169Z,99.5
2018-01-26T06:43:22.908Z,98.6
2018-01-26T06:44:23.573Z,100.0
2018-01-26T06:45:24.262Z,98.8
2018-01-26T06:46:24.939Z,99.4
2018-01-26T06:47:25.600Z,99.9
2018-01-26T06:48:26.264Z,99.5
2018-01-26T06:49:26.935Z,99.5
2018-01-26T06:50:27.594Z,100.0
2018-01-26T06:51:28.265Z,100.0
2018-01-26T06:52:28.923Z,99.7
2018-01-26T06:53:29.586Z,100.0
2018-01-26T06:54:30.250Z,100.0
2018-01-26T06:55:30.928Z,100.0
2018-01-26T06:56:31.623Z,100.0
2018-01-26T06:57:32.289Z,100.0
2018-01-26T06:58:32.992Z,100.0
2018-01-26T06:59:33.658Z,100.0
2018-01-26T07:00:34.323Z,100.0
2018-01-26T07:01:34.989Z,100.0
2018-01-26T07:02:35.657Z,100.0
2018-01-26T07:03:36.323Z,100.0
2018-01-26T07:04:36.989Z,100.0
2018-01-26T07:05:37.654Z,100.0
2018-01-26T07:06:38.320Z,100.0
2018-01-26T07:07:38.985Z,100.0
2018-01-26T07:08:39.650Z,100.0
2018-01-26T07:09:40.315Z,100.0
2018-01-26T07:10:40.981Z,100.0
2018-01-26T07:11:41.645Z,100.0
2018-01-26T07:12:42.312Z,100.0
2018-01-26T07:13:43.029Z,100.0
2018-01-26T07:14:43.694Z,100.0
2018-01-26T07:15:44.360Z,100.0
2018-01-26T07:16:45.027Z,100.0
2018-01-26T07:17:45.693Z,100.0
2018-01-26T07:18:46.361Z,100.0
2018-01-26T07:19:47.028Z,100.0
2018-01-26T07:20:47.694Z,100.0
2018-01-26T07:21:48.357Z,100.0
2018-01-26T07:22:49.028Z,100.0
2018-01-26T07:23:49.691Z,100.0
2018-01-26T07:24:50.356Z,100.0
2018-01-26T07:25:51.026Z,100.0
2018-01-26T07:26:51.696Z,100.0
2018-01-26T07:27:52.363Z,100.0
2018-01-26T07:28:53.079Z,100.0
2018-01-26T07:29:53.770Z,100.0
2018-01-26T07:30:54.451Z,100.0
2018-01-26T07:31:55.118Z,100.0
2018-01-26T07:32:55.785Z,100.0
2018-01-26T07:33:56.453Z,100.0
2018-01-26T07:34:57.119Z,100.0
2018-01-26T07:35:57.785Z,100.0
2018-01-26T07:36:58.452Z,100.0
2018-01-26T07:37:59.119Z,100.0
2018-01-26T07:38:59.835Z,100.0
2018-01-26T07:40:00.541Z,100.0
2018-01-26T07:41:01.212Z,100.0
2018-01-26T07:42:01.876Z,100.0
2018-01-26T07:43:02.543Z,100.0
2018-01-26T07:44:03.233Z,100.0
2018-01-26T07:45:03.915Z,100.0
2018-01-26T07:46:04.581Z,100.0
2018-01-26T07:47:05.247Z,100.0
2018-01-26T07:48:05.912Z,99.9
2018-01-26T07:49:06.581Z,100.0
2018-01-26T07:50:07.247Z,99.9
2018-01-26T07:51:07.911Z,99.6
2018-01-26T07:52:08.577Z,99.9
2018-01-26T07:53:09.244Z,99.8
2018-01-26T07:54:09.912Z,99.9
2018-01-26T07:55:10.617Z,99.9
2018-01-26T07:56:11.284Z,100.0
2018-01-26T07:57:11.953Z,99.9
2018-01-26T07:58:12.621Z,99.8
2018-01-26T07:59:13.288Z,99.7
2018-01-26T08:00:13.954Z,99.8
2018-01-26T08:01:14.622Z,99.9
2018-01-26T08:02:15.291Z,100.0
2018-01-26T08:03:15.957Z,99.9
2018-01-26T08:04:16.625Z,100.0
2018-01-26T08:05:17.294Z,100.0
2018-01-26T08:06:17.960Z,100.0
2018-01-26T08:07:18.630Z,100.0
2018-01-26T08:08:19.337Z,99.9
2018-01-26T08:09:20.004Z,99.5
2018-01-26T08:10:20.671Z,99.2
2018-01-26T08:11:21.376Z,98.7
2018-01-26T08:12:22.046Z,99.0
2018-01-26T08:13:22.712Z,98.6
2018-01-26T08:14:23.379Z,98.1
2018-01-26T08:15:24.047Z,98.4
2018-01-26T08:16:24.714Z,98.1
2018-01-26T08:17:25.382Z,98.2
2018-01-26T08:18:26.060Z,97.8
2018-01-26T08:19:26.758Z,97.7
2018-01-26T08:20:27.427Z,97.4
2018-01-26T08:21:28.097Z,97.6
2018-01-26T08:22:28.765Z,97.6
2018-01-26T08:23:29.432Z,97.6
2018-01-26T08:24:30.101Z,97.7
2018-01-26T08:25:30.771Z,97.4
2018-01-26T08:26:31.440Z,96.7
2018-01-26T08:27:32.128Z,97.2
2018-01-26T08:28:32.815Z,97.0
2018-01-26T08:29:33.486Z,96.7
2018-01-26T08:30:34.155Z,96.8
2018-01-26T08:31:34.863Z,97.0
2018-01-26T08:32:35.533Z,96.4
2018-01-26T08:33:36.202Z,96.4
2018-01-26T08:34:36.871Z,96.5
2018-01-26T08:35:37.538Z,96.8
2018-01-26T08:36:38.208Z,96.9
2018-01-26T08:37:38.875Z,97.1
2018-01-26T08:38:39.544Z,96.8
2018-01-26T08:39:40.213Z,96.8
2018-01-26T08:40:40.888Z,96.8
2018-01-26T08:41:41.589Z,97.0
2018-01-26T08:42:42.257Z,97.2
2018-01-26T08:43:42.925Z,97.6
2018-01-26T08:44:43.595Z,97.9
2018-01-26T08:45:44.264Z,98.2
2018-01-26T08:46:44.932Z,98.5
2018-01-26T08:47:45.602Z,98.4
2018-01-26T08:48:46.268Z,98.5
2018-01-26T08:49:46.937Z,98.6
2018-01-26T08:50:47.607Z,98.1
2018-01-26T08:51:48.275Z,98.1
2018-01-26T08:52:48.946Z,98.3
2018-01-26T08:53:49.615Z,98.6
2018-01-26T08:54:50.283Z,98.8
2018-01-26T08:55:50.952Z,100.0
2018-01-26T08:56:51.622Z,98.9
2018-01-26T08:57:52.291Z,99.2
2018-01-26T08:58:52.997Z,99.5
2018-01-26T08:59:53.666Z,98.9
2018-01-26T09:00:54.335Z,98.5
2018-01-26T09:01:55.004Z,98.6
2018-01-26T09:02:55.672Z,98.8
2018-01-26T09:03:56.341Z,98.5
2018-01-26T09:04:57.051Z,98.3
2018-01-26T09:05:57.716Z,98.3
2018-01-26T09:06:58.386Z,98.3
2018-01-26T09:07:59.054Z,98.4
2018-01-26T09:08:59.761Z,98.3
2018-01-26T09:10:00.429Z,97.6
2018-01-26T09:11:01.096Z,97.9
2018-01-26T09:12:01.768Z,97.0
2018-01-26T09:13:02.435Z,97.1
2018-01-26T09:14:03.117Z,97.3
2018-01-26T09:15:03.815Z,97.3
2018-01-26T09:16:04.485Z,96.6
2018-01-26T09:17:05.153Z,96.9
2018-01-26T09:18:05.824Z,96.4
2018-01-26T09:19:06.491Z,96.4
2018-01-26T09:20:07.198Z,96.3
2018-01-26T09:21:07.867Z,96.4
2018-01-26T09:22:08.537Z,96.2
2018-01-26T09:23:09.204Z,96.3
2018-01-26T09:24:09.873Z,96.3
2018-01-26T09:25:10.544Z,96.1
2018-01-26T09:26:11.212Z,96.1
2018-01-26T09:27:11.882Z,96.1
2018-01-26T09:28:12.552Z,96.2
2018-01-26T09:29:13.219Z,95.5
2018-01-26T09:30:13.888Z,95.2
2018-01-26T09:31:14.558Z,95.2
2018-01-26T09:32:15.226Z,94.6
2018-01-26T09:33:15.894Z,94.7
2018-01-26T09:34:16.567Z,94.6
2018-01-26T09:35:17.237Z,95.2
2018-01-26T09:36:17.909Z,94.9
2018-01-26T09:37:18.580Z,94.5
2018-01-26T09:38:19.251Z,93.7
2018-01-26T09:39:19.922Z,93.9
2018-01-26T09:40:20.592Z,93.5
2018-01-26T09:41:21.304Z,93.7
2018-01-26T09:42:21.978Z,93.8
2018-01-26T09:43:22.649Z,93.4
2018-01-26T09:44:23.319Z,93.4
2018-01-26T09:45:24.040Z,94.2
2018-01-26T09:46:24.712Z,93.8
2018-01-26T09:47:25.386Z,92.9
2018-01-26T09:48:26.056Z,93.2
2018-01-26T09:49:26.727Z,92.8
2018-01-26T09:50:27.400Z,92.5
2018-01-26T09:51:28.072Z,92.3
2018-01-26T09:52:28.742Z,92.5
2018-01-26T09:53:29.452Z,91.0
2018-01-26T09:54:30.123Z,91.4
2018-01-26T09:55:30.813Z,91.1
2018-01-26T09:56:31.464Z,91.2
2018-01-26T09:57:32.136Z,90.7
2018-01-26T09:58:32.806Z,90.4
2018-01-26T09:59:33.476Z,90.7
2018-01-26T10:00:34.150Z,90.6
2018-01-26T10:01:34.820Z,90.6
2018-01-26T10:02:35.492Z,90.7
2018-01-26T10:03:36.163Z,90.9
2018-01-26T10:04:36.834Z,91.9
2018-01-26T10:05:37.557Z,91.6
2018-01-26T10:06:38.229Z,91.1
2018-01-26T10:07:38.904Z,90.5
2018-01-26T10:08:39.571Z,91.3
2018-01-26T10:09:40.245Z,91.9
2018-01-26T10:10:40.915Z,92.2
2018-01-26T10:11:41.588Z,92.4
2018-01-26T10:12:42.296Z,91.3
2018-01-26T10:13:42.967Z,91.6
2018-01-26T10:14:43.655Z,90.7
2018-01-26T10:15:44.353Z,91.6
2018-01-26T10:16:45.026Z,91.7
2018-01-26T10:17:45.696Z,90.9
2018-01-26T10:18:46.368Z,90.2
2018-01-26T10:19:47.040Z,90.7
2018-01-26T10:20:47.711Z,90.4
2018-01-26T10:21:48.383Z,90.7
2018-01-26T10:22:49.054Z,90.6
2018-01-26T10:23:49.725Z,90.3
2018-01-26T10:24:50.401Z,89.8
2018-01-26T10:25:51.071Z,89.3
2018-01-26T10:26:51.744Z,89.8
2018-01-26T10:27:52.414Z,89.6
2018-01-26T10:28:53.093Z,90.2
2018-01-26T10:29:53.799Z,89.9
2018-01-26T10:30:54.471Z,89.9
2018-01-26T10:31:55.143Z,89.0
2018-01-26T10:32:55.814Z,89.2
2018-01-26T10:33:56.488Z,89.2
2018-01-26T10:34:57.160Z,88.8
2018-01-26T10:35:57.831Z,88.9
2018-01-26T10:36:58.502Z,88.3
2018-01-26T10:37:59.173Z,88.6
2018-01-26T10:38:59.847Z,88.1
2018-01-26T10:40:00.518Z,88.8
2018-01-26T10:41:01.239Z,87.9
2018-01-26T10:42:01.949Z,88.3
2018-01-26T10:43:02.622Z,87.9
2018-01-26T10:44:03.294Z,88.3
2018-01-26T10:45:03.968Z,88.5
2018-01-26T10:46:04.637Z,88.8
2018-01-26T10:47:05.307Z,88.6
2018-01-26T10:48:05.980Z,88.4
2018-01-26T10:49:06.651Z,88.0
2018-01-26T10:50:07.322Z,88.8
2018-01-26T10:51:07.992Z,87.7
2018-01-26T10:52:08.662Z,87.2
2018-01-26T10:53:09.332Z,87.6
2018-01-26T10:54:10.006Z,87.7
2018-01-26T10:55:10.676Z,88.8
2018-01-26T10:56:11.347Z,87.5
2018-01-26T10:57:12.017Z,87.3
2018-01-26T10:58:12.728Z,88.1
2018-01-26T10:59:13.400Z,87.7
2018-01-26T11:00:14.072Z,87.2
2018-01-26T11:01:14.795Z,86.9
2018-01-26T11:02:15.466Z,87.4
2018-01-26T11:03:16.139Z,86.3
2018-01-26T11:04:16.811Z,86.5
2018-01-26T11:05:17.489Z,86.5
2018-01-26T11:06:18.192Z,86.1
2018-01-26T11:07:18.863Z,86.3
2018-01-26T11:08:19.536Z,85.9
2018-01-26T11:09:20.210Z,85.0
2018-01-26T11:10:20.882Z,85.6
2018-01-26T11:11:21.554Z,85.9
2018-01-26T11:12:22.224Z,85.2
2018-01-26T11:13:22.898Z,85.2
2018-01-26T11:14:23.568Z,86.0
2018-01-26T11:15:24.241Z,84.6
2018-01-26T11:16:24.912Z,84.1
2018-01-26T11:17:25.585Z,84.6
2018-01-26T11:18:26.299Z,83.8
2018-01-26T11:19:26.970Z,83.1
2018-01-26T11:20:27.642Z,83.5
2018-01-26T11:21:28.312Z,84.2
2018-01-26T11:22:28.986Z,83.5
2018-01-26T11:23:29.659Z,84.4
2018-01-26T11:24:30.329Z,84.3
2018-01-26T11:25:31.000Z,83.4
2018-01-26T11:26:31.677Z,84.1
2018-01-26T11:27:32.343Z,84.2
2018-01-26T11:28:33.052Z,84.2
2018-01-26T11:29:33.722Z,84.0
2018-01-26T11:30:34.394Z,84.4
2018-01-26T11:31:35.066Z,84.7
2018-01-26T11:32:35.762Z,85.1
2018-01-26T11:33:36.411Z,85.2
2018-01-26T11:34:37.082Z,84.5
2018-01-26T11:35:37.754Z,85.0
2018-01-26T11:36:38.425Z,84.9
2018-01-26T11:37:39.098Z,85.3
2018-01-26T11:38:39.771Z,85.1
2018-01-26T11:39:40.443Z,85.1
2018-01-26T11:40:41.114Z,85.0
2018-01-26T11:41:41.785Z,85.5
2018-01-26T11:42:42.458Z,85.6
2018-01-26T11:43:43.129Z,85.2
2018-01-26T11:44:43.801Z,85.1
2018-01-26T11:45:44.473Z,85.0
2018-01-26T11:46:45.145Z,84.4
2018-01-26T11:47:45.818Z,84.6
2018-01-26T11:48:46.489Z,85.1
2018-01-26T11:49:47.161Z,85.0
2018-01-26T11:50:47.832Z,84.5
2018-01-26T11:51:48.505Z,84.5
2018-01-26T11:52:49.178Z,85.2
2018-01-26T11:53:49.849Z,84.7
2018-01-26T11:54:50.521Z,83.8
2018-01-26T11:55:51.205Z,84.1
2018-01-26T11:56:51.867Z,84.6
2018-01-26T11:57:52.541Z,84.4
2018-01-26T11:58:53.209Z,84.1
2018-01-26T11:59:53.882Z,84.2
2018-01-26T12:00:54.554Z,84.6
2018-01-26T12:01:55.227Z,86.3
2018-01-26T12:02:55.898Z,85.4
2018-01-26T12:03:56.571Z,84.9
2018-01-26T12:04:57.243Z,85.4
2018-01-26T12:05:57.914Z,85.1
2018-01-26T12:06:58.587Z,85.5
2018-01-26T12:07:59.258Z,85.3
2018-01-26T12:08:59.970Z,83.8
2018-01-26T12:10:00.643Z,84.3
2018-01-26T12:11:01.354Z,85.1
2018-01-26T12:12:02.114Z,85.2
2018-01-26T12:13:02.750Z,85.0
2018-01-26T12:14:03.421Z,86.2
2018-01-26T12:15:04.093Z,85.3
2018-01-26T12:16:04.766Z,84.4
2018-01-26T12:17:05.438Z,84.8
2018-01-26T12:18:06.111Z,85.4
2018-01-26T12:19:06.783Z,83.2
2018-01-26T12:20:07.455Z,84.4
2018-01-26T12:21:08.129Z,84.4
2018-01-26T12:22:08.802Z,84.9
2018-01-26T12:23:09.512Z,84.4
2018-01-26T12:24:10.184Z,85.3
2018-01-26T12:25:10.853Z,84.8
2018-01-26T12:26:11.566Z,84.8
2018-01-26T12:27:12.289Z,84.2
2018-01-26T12:28:12.993Z,84.9
2018-01-26T12:29:13.668Z,85.5
2018-01-26T12:30:14.339Z,85.9
2018-01-26T12:31:15.012Z,86.5
2018-01-26T12:32:15.684Z,86.0
2018-01-26T12:33:16.353Z,86.7
2018-01-26T12:34:17.024Z,87.3
2018-01-26T12:35:17.698Z,87.5
2018-01-26T12:36:18.368Z,86.7
2018-01-26T12:37:19.041Z,86.1
2018-01-26T12:38:19.749Z,85.8
2018-01-26T12:39:20.422Z,86.2
2018-01-26T12:40:21.092Z,86.9
2018-01-26T12:41:21.763Z,87.6
2018-01-26T12:42:22.436Z,87.0
2018-01-26T12:43:23.111Z,87.0
2018-01-26T12:44:23.780Z,86.8
2018-01-26T12:45:24.451Z,85.8
2018-01-26T12:46:25.123Z,86.2
2018-01-26T12:47:25.796Z,85.8
2018-01-26T12:48:26.469Z,85.7
2018-01-26T12:49:27.141Z,86.3
2018-01-26T12:50:27.852Z,86.6
2018-01-26T12:51:28.525Z,86.4
2018-01-26T12:52:29.199Z,86.4
2018-01-26T12:53:29.871Z,86.5
2018-01-26T12:54:30.543Z,85.3
2018-01-26T12:55:31.211Z,85.2
2018-01-26T12:56:31.901Z,85.1
2018-01-26T12:57:32.599Z,85.6
2018-01-26T12:58:33.263Z,85.3
2018-01-26T12:59:33.934Z,85.3
2018-01-26T13:00:34.604Z,85.8
2018-01-26T13:01:35.314Z,86.1
2018-01-26T13:02:35.986Z,85.2
2018-01-26T13:03:36.659Z,85.0
2018-01-26T13:04:37.332Z,86.0
2018-01-26T13:05:38.003Z,86.6
2018-01-26T13:06:38.676Z,86.9
2018-01-26T13:07:39.382Z,86.8
2018-01-26T13:08:40.056Z,86.5
2018-01-26T13:09:40.727Z,86.2
2018-01-26T13:10:41.399Z,85.3
2018-01-26T13:11:42.070Z,85.6
2018-01-26T13:12:42.740Z,86.0
2018-01-26T13:13:43.442Z,85.9
2018-01-26T13:14:44.082Z,86.1
2018-01-26T13:15:44.782Z,86.1
2018-01-26T13:16:45.463Z,87.3
2018-01-26T13:17:46.134Z,86.9
2018-01-26T13:18:46.802Z,86.6
2018-01-26T13:19:47.475Z,86.2